Time;durP1;ratioP1;P1;durP2;ratioP2;P2;SDS_P1;SDS_P2;PMS_P1;PMS_P2;Temp;Humidity;BMP_temperature;BMP_pressure;BME280_temperature;BME280_humidity;BME280_pressure;Samples;Min_cycle;Max_cycle;Signal;HPM_P1;HPM_P2
2021/11/28 00:02:20;;;;;;;;;;;8.20;59.00;;;;;;5076127;28;19913;-69
2021/11/28 00:04:46;;;;;;;;;;;8.20;59.00;;;;;;5075957;28;19908;-69
2021/11/28 00:14:49;;;;;;;;;;;8.30;59.10;;;;;;5068440;28;19960;-68
2021/11/28 00:17:15;;;;;;;;;;;8.30;59.00;;;;;;5054008;28;20003;-68
2021/11/28 00:19:44;;;;;;;;;;;8.30;59.00;;;;;;5064694;28;20096;-69
2021/11/28 00:22:10;;;;;;;;;;;8.30;59.00;;;;;;5037053;28;19915;-69
2021/11/28 00:24:36;;;;;;;;;;;8.30;59.10;;;;;;5063358;28;19922;-69
2021/11/28 00:27:02;;;;;;;;;;;8.20;59.10;;;;;;5074020;28;19908;-69
2021/11/28 00:29:28;;;;;;;;;;;8.30;59.10;;;;;;5074635;28;19915;-68
2021/11/28 00:31:55;;;;;;;;;;;8.30;59.10;;;;;;5045920;28;19924;-69
2021/11/28 00:34:22;;;;;;;;;;;8.20;59.10;;;;;;5053855;28;19919;-68
2021/11/28 00:36:48;;;;;;;;;;;8.30;59.00;;;;;;5074669;28;19991;-68
2021/11/28 00:39:13;;;;;;;;;;;8.20;59.00;;;;;;5074458;28;19927;-68
2021/11/28 00:41:39;;;;;;;;;;;8.20;59.00;;;;;;5074500;28;20274;-69
2021/11/28 00:44:05;;;;;;;;;;;8.20;59.00;;;;;;5072708;28;19913;-68
2021/11/28 00:46:32;;;;;;;;;;;8.20;59.00;;;;;;5055305;28;19912;-68
2021/11/28 00:48:59;;;;;;;;;;;8.20;59.00;;;;;;5055343;28;19909;-69
2021/11/28 00:51:35;;;;;;;;;;;8.20;59.10;;;;;;5055128;28;19912;-68
2021/11/28 00:54:01;;;;;;;;;;;8.20;59.10;;;;;;5054218;28;19915;-68
2021/11/28 00:56:27;;;;;;;;;;;8.20;59.10;;;;;;5063220;28;20294;-69
2021/11/28 00:58:53;;;;;;;;;;;8.20;59.10;;;;;;5054949;28;20284;-68
2021/11/28 01:01:18;;;;;;;;;;;8.20;59.10;;;;;;5055237;28;19951;-69
2021/11/28 01:03:44;;;;;;;;;;;8.20;59.20;;;;;;5066782;28;19908;-69
2021/11/28 01:06:10;;;;;;;;;;;8.20;59.20;;;;;;5058750;28;20318;-68
2021/11/28 01:08:36;;;;;;;;;;;8.20;59.80;;;;;;5043117;28;19920;-68
2021/11/28 01:11:01;;;;;;;;;;;8.20;59.20;;;;;;5055375;28;19913;-68
2021/11/28 01:13:27;;;;;;;;;;;8.30;59.20;;;;;;5037330;28;19909;-69
2021/11/28 01:15:53;;;;;;;;;;;8.20;59.10;;;;;;5055327;28;19921;-68
2021/11/28 01:18:18;;;;;;;;;;;8.20;59.10;;;;;;5062406;28;20357;-69
2021/11/28 01:20:44;;;;;;;;;;;8.20;59.00;;;;;;5074259;28;20279;-68
2021/11/28 01:23:10;;;;;;;;;;;8.20;59.00;;;;;;5062596;28;19908;-68
2021/11/28 01:25:35;;;;;;;;;;;8.20;59.00;;;;;;5074448;28;19908;-66
2021/11/28 01:28:01;;;;;;;;;;;8.20;59.00;;;;;;5074186;28;19915;-68
2021/11/28 01:30:27;;;;;;;;;;;8.30;59.10;;;;;;5074241;28;19917;-69
2021/11/28 01:32:53;;;;;;;;;;;8.30;59.00;;;;;;5060674;28;19916;-69
2021/11/28 01:35:18;;;;;;;;;;;8.30;59.00;;;;;;5054969;28;19959;-69
2021/11/28 01:37:44;;;;;;;;;;;8.30;59.00;;;;;;5054823;28;20007;-68
2021/11/28 01:40:12;;;;;;;;;;;8.30;59.00;;;;;;5055002;28;19909;-68
2021/11/28 01:42:49;;;;;;;;;;;8.30;59.00;;;;;;5054681;28;19909;-68
2021/11/28 01:45:33;;;;;;;;;;;8.30;59.00;;;;;;5068530;28;20359;-68
2021/11/28 01:48:00;;;;;;;;;;;8.30;58.90;;;;;;5058383;28;19909;-68
2021/11/28 01:50:27;;;;;;;;;;;8.30;58.90;;;;;;5073891;28;20400;-68
2021/11/28 01:52:53;;;;;;;;;;;8.30;58.80;;;;;;5055972;28;19908;-69
2021/11/28 01:55:23;;;;;;;;;;;8.30;58.80;;;;;;5073854;28;19916;-68
2021/11/28 01:57:49;;;;;;;;;;;8.20;58.80;;;;;;5076252;28;19919;-69
2021/11/28 02:00:19;;;;;;;;;;;8.20;58.80;;;;;;5054555;28;19916;-68
2021/11/28 02:02:46;;;;;;;;;;;8.30;58.90;;;;;;5054620;28;20371;-68
2021/11/28 02:05:13;;;;;;;;;;;8.20;58.90;;;;;;5054192;28;19909;-68
2021/11/28 02:07:39;;;;;;;;;;;8.20;58.90;;;;;;5054062;28;19916;-68
2021/11/28 02:10:05;;;;;;;;;;;8.30;58.90;;;;;;5072493;28;20294;-68
2021/11/28 02:12:31;;;;;;;;;;;8.20;58.80;;;;;;5054214;28;19966;-68
2021/11/28 02:14:57;;;;;;;;;;;8.20;58.90;;;;;;5053713;28;20408;-69
2021/11/28 02:17:22;;;;;;;;;;;8.20;58.90;;;;;;5066822;28;19986;-68
2021/11/28 02:19:48;;;;;;;;;;;8.20;58.90;;;;;;5072211;28;19908;-69
2021/11/28 02:22:14;;;;;;;;;;;8.20;59.00;;;;;;5066998;28;20354;-69
2021/11/28 02:24:39;;;;;;;;;;;8.20;59.00;;;;;;5073212;28;19948;-69
2021/11/28 02:27:05;;;;;;;;;;;8.20;59.10;;;;;;5073116;28;19970;-68
2021/11/28 02:29:31;;;;;;;;;;;8.30;59.20;;;;;;5073118;28;19916;-68
2021/11/28 02:31:56;;;;;;;;;;;8.30;59.20;;;;;;5055069;28;20316;-66
2021/11/28 02:34:22;;;;;;;;;;;8.30;59.10;;;;;;5068956;28;19913;-67
2021/11/28 02:36:52;;;;;;;;;;;8.30;59.10;;;;;;5053708;28;19909;-67
2021/11/28 02:39:18;;;;;;;;;;;8.30;59.00;;;;;;5053676;28;19909;-67
2021/11/28 02:41:43;;;;;;;;;;;8.40;58.90;;;;;;5053645;28;19909;-67
2021/11/28 02:44:09;;;;;;;;;;;8.40;59.00;;;;;;5053580;28;20348;-67
2021/11/28 02:46:35;;;;;;;;;;;8.40;59.00;;;;;;5036931;28;19919;-67
2021/11/28 02:49:00;;;;;;;;;;;8.40;58.90;;;;;;5064679;28;19908;-67
2021/11/28 02:51:26;;;;;;;;;;;8.40;58.90;;;;;;5072597;28;20278;-68
2021/11/28 02:53:52;;;;;;;;;;;8.40;58.80;;;;;;5054665;28;19915;-68
2021/11/28 02:56:17;;;;;;;;;;;8.40;58.80;;;;;;5062178;28;19958;-68
2021/11/28 02:58:43;;;;;;;;;;;8.40;58.70;;;;;;5056519;28;19909;-68
2021/11/28 03:01:16;;;;;;;;;;;8.30;58.60;;;;;;5058904;28;20364;-68
2021/11/28 03:03:42;;;;;;;;;;;8.30;58.70;;;;;;5053104;28;20000;-68
2021/11/28 03:06:08;;;;;;;;;;;8.30;58.70;;;;;;5053352;28;19952;-68
2021/11/28 03:08:34;;;;;;;;;;;8.20;58.70;;;;;;5053414;28;19909;-68
2021/11/28 03:10:59;;;;;;;;;;;8.20;58.80;;;;;;5057212;28;20404;-68
2021/11/28 03:13:30;;;;;;;;;;;8.20;58.90;;;;;;5055860;28;19909;-68
2021/11/28 03:15:58;;;;;;;;;;;8.30;59.00;;;;;;5052476;28;19920;-68
2021/11/28 03:18:25;;;;;;;;;;;8.30;59.00;;;;;;5059554;28;20285;-68
2021/11/28 03:20:53;;;;;;;;;;;8.30;58.90;;;;;;5062089;28;19913;-68
2021/11/28 03:23:19;;;;;;;;;;;8.20;58.90;;;;;;5057133;28;19916;-68
2021/11/28 03:25:45;;;;;;;;;;;8.20;59.00;;;;;;5055191;28;19908;-68
2021/11/28 03:28:12;;;;;;;;;;;8.20;59.00;;;;;;5053097;28;19909;-68
2021/11/28 03:30:37;;;;;;;;;;;8.10;59.10;;;;;;5052950;28;20353;-68
2021/11/28 03:33:03;;;;;;;;;;;8.10;59.20;;;;;;5052618;28;19956;-67
2021/11/28 03:35:29;;;;;;;;;;;8.00;59.30;;;;;;5054338;28;19999;-68
2021/11/28 03:37:55;;;;;;;;;;;7.90;59.40;;;;;;5059222;28;20286;-68
2021/11/28 03:40:20;;;;;;;;;;;7.90;59.50;;;;;;5052852;28;19909;-68
2021/11/28 03:42:46;;;;;;;;;;;7.80;59.70;;;;;;5052870;28;20410;-68
2021/11/28 03:45:14;;;;;;;;;;;7.80;59.80;;;;;;5052804;28;19919;-68
2021/11/28 03:47:40;;;;;;;;;;;7.70;59.90;;;;;;5053666;28;19909;-68
2021/11/28 03:50:06;;;;;;;;;;;7.70;60.00;;;;;;5057113;28;19921;-68
2021/11/28 03:52:32;;;;;;;;;;;7.60;60.10;;;;;;5052756;28;20275;-68
2021/11/28 03:54:57;;;;;;;;;;;7.60;60.20;;;;;;5052715;28;19905;-68
2021/11/28 03:57:23;;;;;;;;;;;7.50;60.30;;;;;;5052696;28;19912;-68
2021/11/28 03:59:49;;;;;;;;;;;7.50;60.40;;;;;;5052658;28;19908;-68
2021/11/28 04:02:15;;;;;;;;;;;7.40;60.50;;;;;;5057782;28;19913;-68
2021/11/28 04:04:41;;;;;;;;;;;7.40;60.60;;;;;;5052408;28;19954;-68
2021/11/28 04:07:07;;;;;;;;;;;7.30;60.80;;;;;;5052620;28;19909;-68
2021/11/28 04:09:32;;;;;;;;;;;7.30;60.90;;;;;;5034976;28;20247;-68
2021/11/28 04:11:58;;;;;;;;;;;7.20;61.00;;;;;;5034640;28;19913;-68
2021/11/28 04:14:24;;;;;;;;;;;7.20;61.10;;;;;;5057135;28;19917;-68
2021/11/28 04:16:49;;;;;;;;;;;7.10;61.30;;;;;;5052575;28;20282;-68
2021/11/28 04:19:15;;;;;;;;;;;7.10;61.40;;;;;;5065261;28;19999;-68
2021/11/28 04:21:44;;;;;;;;;;;7.00;61.40;;;;;;5052381;28;19916;-69
2021/11/28 04:24:10;;;;;;;;;;;7.00;61.60;;;;;;5065339;28;19913;-68
2021/11/28 04:26:36;;;;;;;;;;;6.90;61.70;;;;;;5059543;28;19917;-69
2021/11/28 04:29:02;;;;;;;;;;;6.90;61.80;;;;;;5037292;28;19908;-69
2021/11/28 04:31:28;;;;;;;;;;;6.90;62.00;;;;;;5056097;28;19939;-69
2021/11/28 04:33:53;;;;;;;;;;;6.80;62.00;;;;;;5055907;28;20000;-69
2021/11/28 04:36:19;;;;;;;;;;;6.80;62.10;;;;;;5056225;28;19916;-69
2021/11/28 04:38:45;;;;;;;;;;;6.80;62.10;;;;;;5061589;28;19959;-69
2021/11/28 04:41:10;;;;;;;;;;;6.80;62.20;;;;;;5055936;28;19909;-69
2021/11/28 04:43:36;;;;;;;;;;;6.80;62.30;;;;;;5056065;28;20268;-69
2021/11/28 04:46:02;;;;;;;;;;;6.80;62.40;;;;;;5055986;28;19955;-69
2021/11/28 04:48:27;;;;;;;;;;;6.80;62.40;;;;;;5062957;28;20276;-69
2021/11/28 04:50:53;;;;;;;;;;;6.80;62.40;;;;;;5073643;28;20358;-69
2021/11/28 04:53:19;;;;;;;;;;;6.80;62.40;;;;;;5040148;28;19916;-69
2021/11/28 04:55:44;;;;;;;;;;;6.80;62.50;;;;;;5055871;28;20327;-69
2021/11/28 04:58:10;;;;;;;;;;;6.80;62.50;;;;;;5055749;28;20011;-69
2021/11/28 05:00:36;;;;;;;;;;;6.80;62.50;;;;;;5055837;28;19913;-69
2021/11/28 05:03:01;;;;;;;;;;;6.80;62.50;;;;;;5037881;28;19911;-69
2021/11/28 05:05:27;;;;;;;;;;;6.80;62.60;;;;;;5058978;28;20273;-69
2021/11/28 05:07:53;;;;;;;;;;;6.90;62.70;;;;;;5055697;28;19915;-69
2021/11/28 05:10:19;;;;;;;;;;;6.90;62.70;;;;;;5055623;28;19912;-69
2021/11/28 05:12:44;;;;;;;;;;;6.90;62.70;;;;;;5055591;28;19909;-69
2021/11/28 05:15:11;;;;;;;;;;;6.90;62.70;;;;;;5055310;28;19970;-69
2021/11/28 05:17:36;;;;;;;;;;;6.90;62.60;;;;;;5048360;28;19916;-69
2021/11/28 05:20:03;;;;;;;;;;;6.90;62.60;;;;;;5073035;28;19904;-69
2021/11/28 05:22:29;;;;;;;;;;;6.90;62.60;;;;;;5055427;28;20047;-69
2021/11/28 05:24:54;;;;;;;;;;;7.00;62.60;;;;;;5074763;28;19944;-69
2021/11/28 05:27:20;;;;;;;;;;;7.00;62.50;;;;;;5074623;28;19954;-69
2021/11/28 05:29:46;;;;;;;;;;;6.90;62.40;;;;;;5062320;28;19951;-69
2021/11/28 05:32:12;;;;;;;;;;;6.90;62.40;;;;;;5056090;28;19967;-69
2021/11/28 05:34:38;;;;;;;;;;;6.90;62.50;;;;;;5037222;28;20327;-69
2021/11/28 05:37:03;;;;;;;;;;;6.80;62.40;;;;;;5055278;28;20255;-69
2021/11/28 05:39:29;;;;;;;;;;;6.80;62.50;;;;;;5054752;28;20390;-69
2021/11/28 05:41:55;;;;;;;;;;;6.80;62.50;;;;;;5059954;28;19913;-69
2021/11/28 05:44:21;;;;;;;;;;;6.70;62.40;;;;;;5055026;28;19909;-69
2021/11/28 05:46:46;;;;;;;;;;;6.70;62.50;;;;;;5055037;28;19962;-69
2021/11/28 05:49:12;;;;;;;;;;;6.70;62.60;;;;;;5065760;28;19908;-69
2021/11/28 05:51:38;;;;;;;;;;;6.70;62.70;;;;;;5073929;28;19967;-70
2021/11/28 05:54:03;;;;;;;;;;;6.70;62.80;;;;;;5068207;28;19920;-69
2021/11/28 05:56:29;;;;;;;;;;;6.70;62.80;;;;;;5055028;28;19915;-69
2021/11/28 05:58:55;;;;;;;;;;;6.70;62.90;;;;;;5054686;28;19908;-69
2021/11/28 06:01:21;;;;;;;;;;;6.70;62.90;;;;;;5054679;28;19999;-69
2021/11/28 06:03:46;;;;;;;;;;;6.60;62.80;;;;;;5054350;28;20357;-69
2021/11/28 06:06:12;;;;;;;;;;;6.60;62.90;;;;;;5059363;28;19920;-69
2021/11/28 06:08:38;;;;;;;;;;;6.60;63.00;;;;;;5062032;28;19922;-70
2021/11/28 06:11:03;;;;;;;;;;;6.50;63.00;;;;;;5054342;28;20285;-69
2021/11/28 06:13:29;;;;;;;;;;;6.50;63.10;;;;;;5054359;28;20430;-69
2021/11/28 06:15:54;;;;;;;;;;;6.50;63.20;;;;;;5059836;28;19920;-69
2021/11/28 06:18:20;;;;;;;;;;;6.50;63.40;;;;;;5073847;28;19966;-69
2021/11/28 06:20:47;;;;;;;;;;;6.40;63.50;;;;;;5064193;28;19909;-69
2021/11/28 06:23:13;;;;;;;;;;;6.40;63.60;;;;;;5054182;28;19962;-69
2021/11/28 06:25:39;;;;;;;;;;;6.30;63.60;;;;;;5054215;28;20010;-69
2021/11/28 06:28:04;;;;;;;;;;;6.30;63.70;;;;;;5054160;28;19963;-69
2021/11/28 06:30:31;;;;;;;;;;;6.30;63.80;;;;;;5053994;28;19913;-68
2021/11/28 06:32:57;;;;;;;;;;;6.20;63.90;;;;;;5059918;28;20329;-68
2021/11/28 06:35:22;;;;;;;;;;;6.30;64.00;;;;;;5053692;28;20274;-69
2021/11/28 06:37:48;;;;;;;;;;;6.30;64.20;;;;;;5053924;28;19909;-69
2021/11/28 06:40:14;;;;;;;;;;;6.30;64.40;;;;;;5053743;28;19912;-69
2021/11/28 06:42:39;;;;;;;;;;;6.40;64.60;;;;;;5053726;28;20016;-69
2021/11/28 06:45:07;;;;;;;;;;;6.40;64.70;;;;;;5059900;28;19913;-68
2021/11/28 06:47:32;;;;;;;;;;;6.50;64.90;;;;;;5053767;28;19909;-69
2021/11/28 06:49:58;;;;;;;;;;;6.50;65.00;;;;;;5070294;28;19915;-69
2021/11/28 06:52:24;;;;;;;;;;;6.50;65.00;;;;;;5072591;28;19913;-69
2021/11/28 06:54:49;;;;;;;;;;;6.60;65.00;;;;;;5072773;28;20011;-69
2021/11/28 06:57:15;;;;;;;;;;;6.60;64.80;;;;;;5063177;28;19909;-68
2021/11/28 06:59:41;;;;;;;;;;;6.60;64.70;;;;;;5053565;28;19974;-69
2021/11/28 07:02:06;;;;;;;;;;;6.60;64.60;;;;;;5053528;28;19908;-69
2021/11/28 07:04:32;;;;;;;;;;;6.60;64.60;;;;;;5053208;28;19966;-68
2021/11/28 07:06:57;;;;;;;;;;;6.60;64.60;;;;;;5053371;28;19955;-68
2021/11/28 07:09:23;;;;;;;;;;;6.60;64.60;;;;;;5056817;28;19909;-69
2021/11/28 07:11:49;;;;;;;;;;;6.60;64.70;;;;;;5053262;28;19917;-69
2021/11/28 07:14:16;;;;;;;;;;;6.60;64.70;;;;;;5056699;28;19921;-69
2021/11/28 07:16:42;;;;;;;;;;;6.60;64.80;;;;;;5072525;28;19919;-69
2021/11/28 07:19:08;;;;;;;;;;;6.60;64.80;;;;;;5071319;28;19909;-69
2021/11/28 07:21:34;;;;;;;;;;;6.60;64.90;;;;;;5058894;28;19930;-69
2021/11/28 07:23:59;;;;;;;;;;;6.60;64.90;;;;;;5053135;28;19909;-68
2021/11/28 07:26:25;;;;;;;;;;;6.60;65.00;;;;;;5053126;28;19915;-69
2021/11/28 07:28:51;;;;;;;;;;;6.60;65.00;;;;;;5053057;28;19912;-69
2021/11/28 07:31:18;;;;;;;;;;;6.60;65.00;;;;;;5055425;28;20015;-69
2021/11/28 07:33:44;;;;;;;;;;;6.70;65.00;;;;;;5052841;28;20273;-68
2021/11/28 07:36:10;;;;;;;;;;;6.70;65.00;;;;;;5053072;28;19958;-69
2021/11/28 07:38:36;;;;;;;;;;;6.60;65.00;;;;;;5052999;28;20286;-69
2021/11/28 07:41:01;;;;;;;;;;;6.70;65.10;;;;;;5052919;28;19912;-68
2021/11/28 07:43:27;;;;;;;;;;;6.60;65.00;;;;;;5064918;28;19917;-69
2021/11/28 07:45:53;;;;;;;;;;;6.70;65.10;;;;;;5052872;28;19909;-69
2021/11/28 07:48:19;;;;;;;;;;;6.70;65.10;;;;;;5056884;28;19915;-69
2021/11/28 07:50:45;;;;;;;;;;;6.80;65.10;;;;;;5072031;28;19912;-69
2021/11/28 07:53:10;;;;;;;;;;;6.80;65.10;;;;;;5071995;28;19915;-68
2021/11/28 07:55:36;;;;;;;;;;;6.80;65.10;;;;;;5065831;28;19912;-68
2021/11/28 07:58:02;;;;;;;;;;;6.80;65.10;;;;;;5052840;28;19909;-69
2021/11/28 08:00:28;;;;;;;;;;;6.90;65.20;;;;;;5056032;28;19913;-69
2021/11/28 08:02:54;;;;;;;;;;;6.90;65.20;;;;;;5055436;28;20073;-69
2021/11/28 08:05:19;;;;;;;;;;;7.00;65.30;;;;;;5056709;28;19909;-69
2021/11/28 08:07:45;;;;;;;;;;;7.00;65.30;;;;;;5069039;28;19920;-69
2021/11/28 08:10:10;;;;;;;;;;;7.10;65.30;;;;;;5038787;28;20005;-69
2021/11/28 08:12:36;;;;;;;;;;;7.10;65.10;;;;;;5040608;28;19913;-69
2021/11/28 08:15:03;;;;;;;;;;;7.10;65.00;;;;;;5075540;28;19921;-68
2021/11/28 08:17:31;;;;;;;;;;;7.20;65.70;;;;;;5075661;28;20018;-69
2021/11/28 08:19:57;;;;;;;;;;;7.20;65.00;;;;;;5065738;28;19931;-68
2021/11/28 08:22:22;;;;;;;;;;;7.20;65.00;;;;;;5056471;28;20437;-69
2021/11/28 08:24:48;;;;;;;;;;;7.20;64.90;;;;;;5056370;28;19987;-70
2021/11/28 08:27:13;;;;;;;;;;;7.30;64.80;;;;;;5059158;28;19948;-69
2021/11/28 08:29:40;;;;;;;;;;;7.30;64.80;;;;;;5056303;28;19912;-69
2021/11/28 08:32:07;;;;;;;;;;;7.30;64.80;;;;;;5068221;28;19923;-69
2021/11/28 08:34:32;;;;;;;;;;;7.30;64.70;;;;;;5038208;28;19909;-69
2021/11/28 08:36:58;;;;;;;;;;;7.40;64.70;;;;;;5056296;28;20350;-69
2021/11/28 08:39:24;;;;;;;;;;;7.40;64.70;;;;;;5056232;28;19913;-71
2021/11/28 08:41:49;;;;;;;;;;;7.40;64.70;;;;;;5056114;28;19915;-68
2021/11/28 08:44:15;;;;;;;;;;;7.40;64.70;;;;;;5060991;28;19997;-69
2021/11/28 08:46:41;;;;;;;;;;;7.40;64.50;;;;;;5056068;28;20002;-68
2021/11/28 08:49:06;;;;;;;;;;;7.50;64.50;;;;;;5066103;28;19962;-69
2021/11/28 08:51:32;;;;;;;;;;;7.50;64.50;;;;;;5075158;28;19919;-69
2021/11/28 08:53:58;;;;;;;;;;;7.50;64.50;;;;;;5057239;28;19908;-68
2021/11/28 08:56:25;;;;;;;;;;;7.50;64.50;;;;;;5057326;28;19912;-68
2021/11/28 08:58:51;;;;;;;;;;;7.50;64.50;;;;;;5062868;28;19913;-69
2021/11/28 09:01:17;;;;;;;;;;;7.60;64.60;;;;;;5055740;28;19908;-69
2021/11/28 09:03:43;;;;;;;;;;;7.60;64.60;;;;;;5050437;28;20376;-69
2021/11/28 09:06:09;;;;;;;;;;;7.60;64.60;;;;;;5074909;28;20273;-69
2021/11/28 09:08:37;;;;;;;;;;;7.60;64.40;;;;;;5073567;28;19915;-69
2021/11/28 09:11:04;;;;;;;;;;;7.60;64.30;;;;;;5067830;28;19942;-69
2021/11/28 09:13:31;;;;;;;;;;;7.70;64.30;;;;;;5073915;28;19936;-69
2021/11/28 09:15:58;;;;;;;;;;;7.70;64.20;;;;;;5074494;28;19944;-69
2021/11/28 09:18:28;;;;;;;;;;;7.60;64.10;;;;;;5055662;28;19909;-69
2021/11/28 09:20:58;;;;;;;;;;;7.70;64.10;;;;;;5074315;28;20439;-69
2021/11/28 09:26:08;;;;;;;;;;;7.70;64.00;;;;;;5074836;28;19961;-69
2021/11/28 09:28:36;;;;;;;;;;;7.60;63.80;;;;;;5074577;28;19912;-69
2021/11/28 09:31:01;;;;;;;;;;;7.60;63.70;;;;;;5056603;28;19916;-69
2021/11/28 09:33:27;;;;;;;;;;;7.60;63.80;;;;;;5055100;28;19932;-69
2021/11/28 09:35:52;;;;;;;;;;;7.60;63.70;;;;;;5060678;28;19940;-69
2021/11/28 09:38:18;;;;;;;;;;;7.70;63.70;;;;;;5062047;28;20366;-69
2021/11/28 09:40:45;;;;;;;;;;;7.70;63.80;;;;;;5070150;28;20393;-68
2021/11/28 09:43:12;;;;;;;;;;;7.70;63.90;;;;;;5067123;28;19913;-68
2021/11/28 09:45:38;;;;;;;;;;;7.70;63.90;;;;;;5072991;28;19909;-69
2021/11/28 09:48:04;;;;;;;;;;;7.70;63.90;;;;;;5064513;28;20441;-69
2021/11/28 09:50:30;;;;;;;;;;;7.80;63.90;;;;;;5054089;28;19959;-69
2021/11/28 09:52:56;;;;;;;;;;;7.80;63.90;;;;;;5059750;28;19915;-69
2021/11/28 09:55:23;;;;;;;;;;;7.70;63.70;;;;;;5075141;28;19943;-69
2021/11/28 09:57:48;;;;;;;;;;;7.80;63.60;;;;;;5057978;28;19948;-69
2021/11/28 10:00:15;;;;;;;;;;;7.70;63.50;;;;;;5059055;28;19947;-69
2021/11/28 10:02:41;;;;;;;;;;;7.70;63.40;;;;;;5057432;28;19913;-69
2021/11/28 10:05:08;;;;;;;;;;;7.60;63.20;;;;;;5054525;28;19932;-69
2021/11/28 10:07:34;;;;;;;;;;;7.60;63.30;;;;;;5054709;28;19908;-69
2021/11/28 10:09:59;;;;;;;;;;;7.60;63.30;;;;;;5057961;28;19954;-69
2021/11/28 10:12:26;;;;;;;;;;;7.50;63.40;;;;;;5076673;28;19947;-69
2021/11/28 10:14:53;;;;;;;;;;;7.50;63.50;;;;;;5059323;28;20017;-69
2021/11/28 10:17:21;;;;;;;;;;;7.50;63.60;;;;;;5054304;28;19916;-69
2021/11/28 10:19:46;;;;;;;;;;;7.50;63.70;;;;;;5054605;28;19944;-69
2021/11/28 10:22:12;;;;;;;;;;;7.40;64.60;;;;;;5036218;28;19959;-69
2021/11/28 10:25:04;;;;;;;;;;;7.40;63.70;;;;;;5060293;28;19912;-69
2021/11/28 10:27:31;;;;;;;;;;;7.40;63.80;;;;;;5030604;28;19913;-70
2021/11/28 10:29:56;;;;;;;;;;;7.40;64.00;;;;;;5053917;28;19954;-69
2021/11/28 10:32:23;;;;;;;;;;;7.40;64.00;;;;;;5053892;28;19913;-69
2021/11/28 10:34:48;;;;;;;;;;;7.40;64.00;;;;;;5053812;28;19916;-69
2021/11/28 10:37:18;;;;;;;;;;;7.40;64.00;;;;;;5060227;28;20362;-69
2021/11/28 10:39:45;;;;;;;;;;;7.40;64.00;;;;;;5040789;28;20286;-69
2021/11/28 10:42:18;;;;;;;;;;;7.40;64.10;;;;;;5057661;28;19965;-69
2021/11/28 10:45:00;;;;;;;;;;;7.40;64.10;;;;;;5073064;28;20281;-69
2021/11/28 10:47:37;;;;;;;;;;;7.40;64.20;;;;;;5060811;28;19918;-69
2021/11/28 10:50:26;;;;;;;;;;;7.50;64.40;;;;;;5070549;28;19908;-69
2021/11/28 10:52:53;;;;;;;;;;;7.50;64.40;;;;;;5062259;28;20000;-70
2021/11/28 10:55:23;;;;;;;;;;;7.50;64.10;;;;;;5036182;28;20349;-68
2021/11/28 10:58:09;;;;;;;;;;;7.60;64.10;;;;;;5053562;28;19971;-68
2021/11/28 11:00:58;;;;;;;;;;;7.60;64.20;;;;;;5066706;28;19908;-68
2021/11/28 11:03:48;;;;;;;;;;;7.60;64.30;;;;;;5065387;28;19941;-68
2021/11/28 11:06:20;;;;;;;;;;;7.70;64.50;;;;;;5053140;28;20004;-69
2021/11/28 11:08:47;;;;;;;;;;;7.80;64.20;;;;;;5048670;28;19962;-69
2021/11/28 11:11:14;;;;;;;;;;;7.70;63.90;;;;;;5072552;28;19920;-69
2021/11/28 11:14:02;;;;;;;;;;;7.70;63.70;;;;;;5060943;28;19963;-70
2021/11/28 11:16:40;;;;;;;;;;;7.80;63.70;;;;;;5053565;28;19913;-69
2021/11/28 11:19:28;;;;;;;;;;;7.80;63.80;;;;;;5062722;28;19909;-69
2021/11/28 11:22:01;;;;;;;;;;;7.80;63.70;;;;;;5060066;28;19913;-69
2021/11/28 11:24:27;;;;;;;;;;;7.80;63.60;;;;;;5035374;28;20263;-69
2021/11/28 11:26:52;;;;;;;;;;;7.80;63.50;;;;;;5053127;28;19915;-69
2021/11/28 11:29:18;;;;;;;;;;;7.80;63.40;;;;;;5035341;28;19909;-69
2021/11/28 11:31:54;;;;;;;;;;;7.80;63.30;;;;;;5064111;28;20290;-69
2021/11/28 11:34:38;;;;;;;;;;;7.80;63.30;;;;;;5052894;28;19909;-68
2021/11/28 11:37:15;;;;;;;;;;;7.80;63.20;;;;;;5056185;28;19915;-69
2021/11/28 11:39:42;;;;;;;;;;;7.80;63.20;;;;;;5059678;28;20298;-68
2021/11/28 11:42:08;;;;;;;;;;;7.80;63.20;;;;;;5043440;28;19920;-68
2021/11/28 11:44:34;;;;;;;;;;;7.70;63.10;;;;;;5041810;28;20007;-68
2021/11/28 11:47:00;;;;;;;;;;;7.80;63.30;;;;;;5041781;28;20026;-68
2021/11/28 11:49:27;;;;;;;;;;;7.70;63.20;;;;;;5071165;28;19919;-67
2021/11/28 11:51:53;;;;;;;;;;;7.70;63.20;;;;;;5063919;28;19916;-68
2021/11/28 11:54:22;;;;;;;;;;;7.70;63.10;;;;;;5064720;28;19909;-68
2021/11/28 11:56:59;;;;;;;;;;;7.70;63.10;;;;;;5059660;28;19909;-68
2021/11/28 11:59:34;;;;;;;;;;;7.70;63.20;;;;;;5059593;28;19912;-68
2021/11/28 12:02:01;;;;;;;;;;;7.70;63.20;;;;;;5082724;28;20251;-70
2021/11/28 12:04:36;;;;;;;;;;;7.70;63.20;;;;;;5078538;28;19961;-70
2021/11/28 12:07:01;;;;;;;;;;;7.70;63.20;;;;;;5078639;28;19954;-70
2021/11/28 12:09:29;;;;;;;;;;;7.80;63.20;;;;;;5060819;28;19909;-70
2021/11/28 12:11:59;;;;;;;;;;;7.80;63.20;;;;;;5080002;28;19971;-70
2021/11/28 12:14:25;;;;;;;;;;;7.80;63.20;;;;;;5068091;28;19916;-68
2021/11/28 12:16:51;;;;;;;;;;;7.80;63.20;;;;;;5071238;28;19916;-68
2021/11/28 12:19:35;;;;;;;;;;;7.80;63.30;;;;;;5078292;28;19919;-68
2021/11/28 12:22:01;;;;;;;;;;;7.80;63.30;;;;;;5061293;28;19912;-70
2021/11/28 12:24:28;;;;;;;;;;;7.80;63.20;;;;;;5064803;28;20237;-70
2021/11/28 12:26:56;;;;;;;;;;;7.80;63.10;;;;;;5059440;28;19941;-69
2021/11/28 12:29:23;;;;;;;;;;;7.80;63.10;;;;;;5059429;28;19993;-69
2021/11/28 12:31:50;;;;;;;;;;;7.80;63.10;;;;;;5059098;28;19912;-68
2021/11/28 12:34:26;;;;;;;;;;;7.90;63.20;;;;;;5059003;28;20012;-68
2021/11/28 12:36:54;;;;;;;;;;;7.80;63.10;;;;;;5066053;28;19974;-68
2021/11/28 12:39:22;;;;;;;;;;;7.80;63.10;;;;;;5067357;28;19921;-68
2021/11/28 12:41:48;;;;;;;;;;;7.90;63.20;;;;;;5067833;28;19919;-69
2021/11/28 12:44:19;;;;;;;;;;;7.90;63.10;;;;;;5078473;28;19913;-66
2021/11/28 12:46:45;;;;;;;;;;;7.80;63.00;;;;;;5060375;28;20282;-71
2021/11/28 12:49:26;;;;;;;;;;;7.90;63.10;;;;;;5062590;28;19925;-68
2021/11/28 12:51:51;;;;;;;;;;;7.90;63.10;;;;;;5058382;28;20357;-68
2021/11/28 12:54:24;;;;;;;;;;;7.90;63.10;;;;;;5057642;28;20122;-68
2021/11/28 12:57:16;;;;;;;;;;;7.80;63.00;;;;;;5074189;28;19904;-68
2021/11/28 13:00:01;;;;;;;;;;;7.80;63.00;;;;;;5064384;28;19919;-68
2021/11/28 13:02:41;;;;;;;;;;;7.80;63.00;;;;;;5064318;28;19908;-68
2021/11/28 13:05:25;;;;;;;;;;;7.80;63.00;;;;;;5070944;28;19912;-68
2021/11/28 13:07:51;;;;;;;;;;;7.70;63.00;;;;;;5060874;28;19943;-68
2021/11/28 13:10:40;;;;;;;;;;;7.70;63.00;;;;;;5070951;28;19983;-68
2021/11/28 13:13:14;;;;;;;;;;;7.70;63.00;;;;;;5055638;28;20295;-68
2021/11/28 13:15:41;;;;;;;;;;;7.70;63.10;;;;;;5073734;28;20301;-68
2021/11/28 13:18:08;;;;;;;;;;;7.70;63.20;;;;;;5063400;28;20406;-68
2021/11/28 13:20:36;;;;;;;;;;;7.70;63.30;;;;;;5054018;28;20286;-68
2021/11/28 13:23:02;;;;;;;;;;;7.60;63.30;;;;;;5060876;28;19913;-66
2021/11/28 13:25:36;;;;;;;;;;;7.70;63.40;;;;;;5063412;28;20011;-68
2021/11/28 13:28:13;;;;;;;;;;;7.70;63.40;;;;;;5079248;28;19912;-68
2021/11/28 13:30:43;;;;;;;;;;;7.70;63.50;;;;;;5074525;28;19916;-68
2021/11/28 13:33:16;;;;;;;;;;;7.70;63.50;;;;;;5074732;28;19908;-68
2021/11/28 13:35:42;;;;;;;;;;;7.70;63.40;;;;;;5091073;28;19912;-68
2021/11/28 13:38:14;;;;;;;;;;;7.80;63.40;;;;;;5078801;28;19919;-68
2021/11/28 13:40:40;;;;;;;;;;;7.80;63.40;;;;;;5075706;28;19912;-68
2021/11/28 13:43:05;;;;;;;;;;;7.80;63.30;;;;;;5080599;28;20376;-68
2021/11/28 13:45:31;;;;;;;;;;;7.80;63.30;;;;;;5094833;28;19908;-68
2021/11/28 13:47:57;;;;;;;;;;;7.80;63.30;;;;;;5080952;28;19913;-68
2021/11/28 13:50:23;;;;;;;;;;;7.80;63.30;;;;;;5074230;28;19912;-68
2021/11/28 13:52:48;;;;;;;;;;;7.80;63.30;;;;;;5075403;28;20354;-68
2021/11/28 13:55:14;;;;;;;;;;;7.80;63.30;;;;;;5092266;28;20394;-68
2021/11/28 13:57:39;;;;;;;;;;;7.80;63.30;;;;;;5094540;28;19962;-68
2021/11/28 14:00:06;;;;;;;;;;;7.90;63.30;;;;;;5093812;28;19912;-68
2021/11/28 14:02:32;;;;;;;;;;;7.90;63.30;;;;;;5084204;28;19912;-68
2021/11/28 14:05:05;;;;;;;;;;;7.90;63.40;;;;;;5073849;28;19966;-68
2021/11/28 14:07:31;;;;;;;;;;;7.90;63.30;;;;;;5073491;28;20440;-68
2021/11/28 14:10:13;;;;;;;;;;;7.90;63.20;;;;;;5073945;28;19974;-68
2021/11/28 14:12:41;;;;;;;;;;;7.90;63.20;;;;;;5075085;28;20378;-68
2021/11/28 14:15:10;;;;;;;;;;;7.90;63.20;;;;;;5073877;28;19927;-68
2021/11/28 14:17:36;;;;;;;;;;;7.90;64.00;;;;;;5073324;28;19916;-68
2021/11/28 14:20:25;;;;;;;;;;;7.90;63.10;;;;;;5093938;28;19912;-68
2021/11/28 14:22:53;;;;;;;;;;;7.90;63.10;;;;;;5094365;28;20546;-68
2021/11/28 14:25:36;;;;;;;;;;;7.90;63.10;;;;;;5093886;28;19919;-68
2021/11/28 14:28:17;;;;;;;;;;;7.90;63.10;;;;;;5054022;28;19924;-68
2021/11/28 14:30:44;;;;;;;;;;;7.90;63.00;;;;;;5056502;28;20320;-68
2021/11/28 14:33:13;;;;;;;;;;;7.80;62.80;;;;;;5076648;28;20276;-68
2021/11/28 14:36:05;;;;;;;;;;;7.80;62.70;;;;;;5092666;28;19912;-68
2021/11/28 14:38:33;;;;;;;;;;;7.70;62.60;;;;;;5023976;28;20007;-68
2021/11/28 14:41:01;;;;;;;;;;;7.60;62.60;;;;;;5074199;28;19961;-69
2021/11/28 14:43:29;;;;;;;;;;;7.60;62.60;;;;;;5073477;28;19912;-69
2021/11/28 14:46:08;;;;;;;;;;;7.60;62.60;;;;;;5073815;28;19908;-67